Time;durP1;ratioP1;P1;durP2;ratioP2;P2;SDS_P1;SDS_P2;PMS_P1;PMS_P2;Temp;Humidity;BMP_temperature;BMP_pressure;BME280_temperature;BME280_humidity;BME280_pressure;Samples;Min_cycle;Max_cycle;Signal;HPM_P1;HPM_P2
2023/04/24 00:01:48;;;;;;;10.63;6.20;;;;;;;;;;6095368;23;20025;-75
2023/04/24 00:04:16;;;;;;;14.25;7.18;;;;;;;;;;6071995;23;20477;-76
2023/04/24 00:06:43;;;;;;;11.68;7.15;;;;;;;;;;6096655;23;20279;-76
2023/04/24 00:09:12;;;;;;;14.82;7.10;;;;;;;;;;6121460;23;20010;-76
2023/04/24 00:11:38;;;;;;;15.40;6.40;;;;;;;;;;6096148;23;20018;-74
2023/04/24 00:14:04;;;;;;;14.63;6.88;;;;;;;;;;6096262;23;20600;-75
2023/04/24 00:16:30;;;;;;;12.60;5.72;;;;;;;;;;6129210;23;20021;-75
2023/04/24 00:18:56;;;;;;;11.90;6.47;;;;;;;;;;6108358;23;20061;-75
2023/04/24 00:21:25;;;;;;;13.32;6.65;;;;;;;;;;6130956;23;20014;-74
2023/04/24 00:23:51;;;;;;;16.25;6.32;;;;;;;;;;6123084;23;20013;-75
2023/04/24 00:26:17;;;;;;;8.55;6.15;;;;;;;;;;6122828;23;20423;-74
2023/04/24 00:28:43;;;;;;;11.52;5.80;;;;;;;;;;6095968;23;20178;-75
2023/04/24 00:31:09;;;;;;;8.90;5.43;;;;;;;;;;6094003;23;20451;-74
2023/04/24 00:33:35;;;;;;;13.80;6.40;;;;;;;;;;6072101;23;20476;-75
2023/04/24 00:36:01;;;;;;;11.05;5.43;;;;;;;;;;6095157;23;20154;-75
2023/04/24 00:38:27;;;;;;;20.92;6.13;;;;;;;;;;6094888;23;20014;-75
2023/04/24 00:40:54;;;;;;;6.68;5.78;;;;;;;;;;6120751;23;20029;-74
2023/04/24 00:43:20;;;;;;;10.90;6.28;;;;;;;;;;6095906;23;20013;-75
2023/04/24 00:45:46;;;;;;;18.35;7.50;;;;;;;;;;6121429;23;20029;-75
2023/04/24 00:48:12;;;;;;;13.13;7.70;;;;;;;;;;6120462;23;20538;-76
2023/04/24 00:50:40;;;;;;;10.55;6.10;;;;;;;;;;6071779;23;20021;-76
2023/04/24 00:53:06;;;;;;;6.60;5.80;;;;;;;;;;6123147;23;20009;-76
2023/04/24 00:55:32;;;;;;;18.85;8.18;;;;;;;;;;6072350;23;20407;-75
2023/04/24 00:57:59;;;;;;;11.82;6.07;;;;;;;;;;6121332;23;20014;-75
2023/04/24 01:00:25;;;;;;;12.68;6.07;;;;;;;;;;6120577;23;20462;-74
2023/04/24 01:02:51;;;;;;;18.55;7.07;;;;;;;;;;6121508;23;20194;-75
2023/04/24 01:05:18;;;;;;;7.85;5.72;;;;;;;;;;6095192;23;20135;-76
2023/04/24 01:07:45;;;;;;;13.57;6.10;;;;;;;;;;6047618;23;20449;-73
2023/04/24 01:10:11;;;;;;;16.83;5.95;;;;;;;;;;6120422;23;20013;-75
2023/04/24 01:12:37;;;;;;;16.70;7.10;;;;;;;;;;6120977;23;20010;-76
2023/04/24 01:15:05;;;;;;;7.78;6.00;;;;;;;;;;6070676;23;20101;-76
2023/04/24 01:17:32;;;;;;;14.35;6.55;;;;;;;;;;6095022;23;20021;-75
2023/04/24 01:19:59;;;;;;;7.82;6.53;;;;;;;;;;6120349;23;20093;-75
2023/04/24 01:22:25;;;;;;;10.77;7.63;;;;;;;;;;6094959;23;20466;-75
2023/04/24 01:24:52;;;;;;;21.08;8.07;;;;;;;;;;6095419;23;20033;-74
2023/04/24 01:27:18;;;;;;;12.20;7.00;;;;;;;;;;6121985;23;20014;-75
2023/04/24 01:29:45;;;;;;;8.15;6.75;;;;;;;;;;6119783;23;20037;-75
2023/04/24 01:32:11;;;;;;;18.00;8.32;;;;;;;;;;6094047;23;20017;-75
2023/04/24 01:34:37;;;;;;;15.82;7.63;;;;;;;;;;6070829;23;20192;-75
2023/04/24 01:37:04;;;;;;;8.30;6.05;;;;;;;;;;6094689;23;20670;-75
2023/04/24 01:39:30;;;;;;;10.00;7.35;;;;;;;;;;6095907;23;20037;-75
2023/04/24 01:41:57;;;;;;;8.68;6.70;;;;;;;;;;6120530;23;20017;-75
2023/04/24 01:44:23;;;;;;;10.10;7.15;;;;;;;;;;6093525;23;20088;-74
2023/04/24 01:46:49;;;;;;;11.52;7.55;;;;;;;;;;6094330;23;20026;-76
2023/04/24 01:49:15;;;;;;;10.77;6.38;;;;;;;;;;6092864;23;20560;-74
2023/04/24 01:51:41;;;;;;;9.68;6.95;;;;;;;;;;6120551;23;20014;-74
2023/04/24 01:54:07;;;;;;;10.55;7.53;;;;;;;;;;6121101;23;20025;-75
2023/04/24 01:56:35;;;;;;;10.73;8.48;;;;;;;;;;6120733;23;20021;-73
2023/04/24 01:59:02;;;;;;;11.77;8.82;;;;;;;;;;6093617;23;20477;-75
2023/04/24 02:01:33;;;;;;;12.27;8.00;;;;;;;;;;6120218;23;20049;-76
2023/04/24 02:03:58;;;;;;;8.15;7.22;;;;;;;;;;6094142;23;20485;-75
2023/04/24 02:06:25;;;;;;;10.32;7.30;;;;;;;;;;6119060;23;20403;-75
2023/04/24 02:08:52;;;;;;;9.18;7.70;;;;;;;;;;6093288;23;20033;-75
2023/04/24 02:11:18;;;;;;;8.98;8.05;;;;;;;;;;6069168;23;20093;-74
2023/04/24 02:13:44;;;;;;;10.30;7.68;;;;;;;;;;6120393;23;20056;-73
2023/04/24 02:16:10;;;;;;;11.00;6.85;;;;;;;;;;6120567;23;20018;-73
2023/04/24 02:18:56;;;;;;;8.65;7.80;;;;;;;;;;6078232;23;20021;-75
2023/04/24 02:21:24;;;;;;;12.05;7.82;;;;;;;;;;6093267;23;20018;-76
2023/04/24 02:23:50;;;;;;;8.82;7.82;;;;;;;;;;6093397;23;20521;-75
2023/04/24 02:26:17;;;;;;;16.60;7.75;;;;;;;;;;6096306;23;20104;-75
2023/04/24 02:28:44;;;;;;;16.02;8.68;;;;;;;;;;6097420;23;20104;-75
2023/04/24 02:31:10;;;;;;;15.20;8.07;;;;;;;;;;6124748;23;20070;-75
2023/04/24 02:33:36;;;;;;;9.32;6.95;;;;;;;;;;6123238;23;20010;-76
2023/04/24 02:36:02;;;;;;;9.25;8.15;;;;;;;;;;6122764;23;20471;-76
2023/04/24 02:38:29;;;;;;;14.60;7.38;;;;;;;;;;6122434;23;20017;-76
2023/04/24 02:40:54;;;;;;;8.98;8.07;;;;;;;;;;6097075;23;20017;-76
2023/04/24 02:43:20;;;;;;;15.18;8.73;;;;;;;;;;6096945;23;20021;-76
2023/04/24 02:45:46;;;;;;;13.40;8.30;;;;;;;;;;6096976;23;20049;-75
2023/04/24 02:48:12;;;;;;;15.98;8.48;;;;;;;;;;6048551;23;20021;-77
2023/04/24 02:50:38;;;;;;;15.88;9.88;;;;;;;;;;6122682;23;20021;-75
2023/04/24 02:53:04;;;;;;;14.68;7.57;;;;;;;;;;6073305;23;20359;-76
2023/04/24 02:55:31;;;;;;;7.45;6.75;;;;;;;;;;6097870;23;20141;-75
2023/04/24 02:57:56;;;;;;;7.68;6.90;;;;;;;;;;6098486;23;20017;-75
2023/04/24 03:00:23;;;;;;;9.32;8.40;;;;;;;;;;6124130;23;20024;-75
2023/04/24 03:02:49;;;;;;;8.90;7.82;;;;;;;;;;6124186;23;20010;-73
2023/04/24 03:05:15;;;;;;;11.13;7.55;;;;;;;;;;6097796;23;20022;-72
2023/04/24 03:07:41;;;;;;;9.07;8.13;;;;;;;;;;6124367;23;20010;-73
2023/04/24 03:10:07;;;;;;;9.43;8.52;;;;;;;;;;6123638;23;20096;-73
2023/04/24 03:12:33;;;;;;;11.82;9.25;;;;;;;;;;6074822;23;20018;-72
2023/04/24 03:15:03;;;;;;;8.98;7.45;;;;;;;;;;6099240;23;20367;-73
2023/04/24 03:17:31;;;;;;;11.07;8.40;;;;;;;;;;6124306;23;20036;-72
2023/04/24 03:19:57;;;;;;;12.98;8.73;;;;;;;;;;6074410;23;20017;-73
2023/04/24 03:22:23;;;;;;;14.32;8.88;;;;;;;;;;6098489;23;20033;-73
2023/04/24 03:24:50;;;;;;;15.65;10.15;;;;;;;;;;6074604;23;20014;-73
2023/04/24 03:27:17;;;;;;;10.73;9.73;;;;;;;;;;6098324;23;20014;-73
2023/04/24 03:29:56;;;;;;;8.98;7.97;;;;;;;;;;6098426;23;20009;-72
2023/04/24 03:32:26;;;;;;;10.57;8.80;;;;;;;;;;6098586;23;20529;-72
2023/04/24 03:34:52;;;;;;;13.95;9.15;;;;;;;;;;6124405;23;20018;-73
2023/04/24 03:37:19;;;;;;;9.45;8.55;;;;;;;;;;6097647;23;20028;-72
2023/04/24 03:39:54;;;;;;;6.90;6.18;;;;;;;;;;6098246;23;20014;-74
2023/04/24 03:42:24;;;;;;;17.35;10.18;;;;;;;;;;6074208;23;20026;-73
2023/04/24 03:44:56;;;;;;;;;;;;;;;;;;6098563;23;20014;-72
2023/04/24 03:47:28;;;;;;;13.02;9.52;;;;;;;;;;6098421;23;19913;-74
2023/04/24 03:49:57;;;;;;;14.65;8.65;;;;;;;;;;6097998;23;20489;-74
2023/04/24 03:52:24;;;;;;;8.23;7.38;;;;;;;;;;6050176;23;20022;-74
2023/04/24 03:54:51;;;;;;;14.52;9.20;;;;;;;;;;6097366;23;20021;-73
2023/04/24 03:57:21;;;;;;;11.30;9.15;;;;;;;;;;6123917;23;20018;-73
2023/04/24 03:59:59;;;;;;;13.80;9.30;;;;;;;;;;6098917;23;20013;-74
2023/04/24 04:02:26;;;;;;;10.65;9.50;;;;;;;;;;6075393;23;20018;-73
2023/04/24 04:04:52;;;;;;;9.00;8.10;;;;;;;;;;6077603;23;20145;-74
2023/04/24 04:07:19;;;;;;;13.57;9.10;;;;;;;;;;6104581;23;20041;-74
2023/04/24 04:09:48;;;;;;;11.70;8.75;;;;;;;;;;6079102;23;20503;-74
2023/04/24 04:12:15;;;;;;;9.60;8.70;;;;;;;;;;6098735;23;20036;-74
2023/04/24 04:14:41;;;;;;;15.40;8.35;;;;;;;;;;6098037;23;20483;-74
2023/04/24 04:17:07;;;;;;;12.48;9.70;;;;;;;;;;6074289;23;20485;-74
2023/04/24 04:19:34;;;;;;;11.10;9.30;;;;;;;;;;6097864;23;20162;-74
2023/04/24 04:22:00;;;;;;;12.75;9.07;;;;;;;;;;6123865;23;20014;-74
2023/04/24 04:24:40;;;;;;;17.38;9.52;;;;;;;;;;6074014;23;20017;-74
2023/04/24 04:27:08;;;;;;;14.98;9.38;;;;;;;;;;6073416;23;20030;-73
2023/04/24 04:30:04;;;;;;;14.45;9.73;;;;;;;;;;6123329;23;20183;-73
2023/04/24 04:32:36;;;;;;;17.98;9.82;;;;;;;;;;6097682;23;20104;-76
2023/04/24 04:35:04;;;;;;;19.20;10.20;;;;;;;;;;6098206;23;20025;-77
2023/04/24 04:37:33;;;;;;;17.98;9.25;;;;;;;;;;6074554;23;20018;-76
2023/04/24 04:40:14;;;;;;;18.52;9.90;;;;;;;;;;6098330;23;20018;-76
2023/04/24 04:42:52;;;;;;;24.17;10.27;;;;;;;;;;6123590;23;20017;-77
2023/04/24 04:45:20;;;;;;;13.05;9.73;;;;;;;;;;6123435;23;20026;-76
2023/04/24 04:48:07;;;;;;;11.98;9.10;;;;;;;;;;6101463;23;20022;-76
2023/04/24 04:50:37;;;;;;;11.73;9.20;;;;;;;;;;6097373;23;20410;-76
2023/04/24 04:53:07;;;;;;;11.05;9.23;;;;;;;;;;6069900;23;20104;-72
2023/04/24 04:55:37;;;;;;;17.48;9.32;;;;;;;;;;6094244;23;20013;-74
2023/04/24 04:58:08;;;;;;;11.30;8.18;;;;;;;;;;6096307;23;20061;-74
2023/04/24 05:00:37;;;;;;;9.32;8.25;;;;;;;;;;6121956;23;20073;-72
2023/04/24 05:03:12;;;;;;;11.68;8.15;;;;;;;;;;6096887;23;20411;-73
2023/04/24 05:05:40;;;;;;;15.18;8.18;;;;;;;;;;6095181;23;20152;-75
2023/04/24 05:08:11;;;;;;;12.40;8.13;;;;;;;;;;6097958;23;20033;-75
2023/04/24 05:10:38;;;;;;;9.15;7.90;;;;;;;;;;6073426;23;20080;-75
2023/04/24 05:13:05;;;;;;;14.00;8.90;;;;;;;;;;6108283;23;20084;-74
2023/04/24 05:15:32;;;;;;;8.73;7.82;;;;;;;;;;6115469;23;20017;-77
2023/04/24 05:18:00;;;;;;;8.52;7.28;;;;;;;;;;6093780;23;20030;-78
2023/04/24 05:20:27;;;;;;;13.43;7.72;;;;;;;;;;6115339;23;20013;-79
2023/04/24 05:22:54;;;;;;;7.97;6.90;;;;;;;;;;6115147;23;20014;-77
2023/04/24 05:25:22;;;;;;;15.20;7.97;;;;;;;;;;6104577;23;20022;-77
2023/04/24 05:27:58;;;;;;;12.05;7.88;;;;;;;;;;6121381;23;20020;-78
2023/04/24 05:30:27;;;;;;;9.50;7.82;;;;;;;;;;6071661;23;20076;-79
2023/04/24 05:32:53;;;;;;;11.75;7.40;;;;;;;;;;6095657;23;20006;-78
2023/04/24 05:35:22;;;;;;;10.43;7.03;;;;;;;;;;6094756;23;20542;-78
2023/04/24 05:37:48;;;;;;;16.33;7.72;;;;;;;;;;6098180;23;20120;-79
2023/04/24 05:40:15;;;;;;;8.63;7.35;;;;;;;;;;6072852;23;20041;-78
2023/04/24 05:42:42;;;;;;;32.58;8.65;;;;;;;;;;6122588;23;20356;-80
2023/04/24 05:45:09;;;;;;;12.80;7.82;;;;;;;;;;6096148;23;20013;-77
2023/04/24 05:47:35;;;;;;;8.57;6.95;;;;;;;;;;6070499;23;20116;-77
2023/04/24 05:50:01;;;;;;;10.85;7.93;;;;;;;;;;6122021;23;20056;-77
2023/04/24 05:52:26;;;;;;;13.43;7.00;;;;;;;;;;6121731;23;20041;-78
2023/04/24 05:54:52;;;;;;;13.75;7.40;;;;;;;;;;6096848;23;20022;-77
2023/04/24 05:57:22;;;;;;;15.52;9.07;;;;;;;;;;6096143;23;20014;-79
2023/04/24 05:59:54;;;;;;;15.65;7.18;;;;;;;;;;6095983;23;20972;-79
2023/04/24 06:02:21;;;;;;;8.93;6.65;;;;;;;;;;6096236;23;20423;-77
2023/04/24 06:04:48;;;;;;;10.77;6.68;;;;;;;;;;6096457;23;20114;-78
2023/04/24 06:07:14;;;;;;;15.57;6.80;;;;;;;;;;6097208;23;20046;-78
2023/04/24 06:09:42;;;;;;;10.85;6.80;;;;;;;;;;6097618;23;20006;-80
2023/04/24 06:12:08;;;;;;;8.43;5.78;;;;;;;;;;6048903;23;20114;-78
2023/04/24 06:14:48;;;;;;;;;;;;;;;;;;6096645;23;20014;-77
2023/04/24 06:17:30;;;;;;;8.27;6.15;;;;;;;;;;6051112;23;20359;-78
2023/04/24 06:19:56;;;;;;;8.77;7.00;;;;;;;;;;6072943;23;20412;-78
2023/04/24 06:22:24;;;;;;;7.68;5.72;;;;;;;;;;6103727;23;20024;-80
2023/04/24 06:24:50;;;;;;;14.63;5.72;;;;;;;;;;6102597;23;20017;-79
2023/04/24 06:27:17;;;;;;;11.10;6.25;;;;;;;;;;6107044;23;20446;-79
2023/04/24 06:29:43;;;;;;;16.58;7.80;;;;;;;;;;6127489;23;20017;-78
2023/04/24 06:32:09;;;;;;;11.27;5.47;;;;;;;;;;6141477;23;20044;-77
2023/04/24 06:34:36;;;;;;;12.02;5.45;;;;;;;;;;6115973;23;20018;-79
2023/04/24 06:37:02;;;;;;;10.13;5.30;;;;;;;;;;6087732;23;20421;-79
2023/04/24 06:39:28;;;;;;;7.95;5.53;;;;;;;;;;6137168;23;20018;-78
2023/04/24 06:41:54;;;;;;;17.95;6.13;;;;;;;;;;6107789;23;20022;-78
2023/04/24 06:44:20;;;;;;;10.55;5.60;;;;;;;;;;6129412;23;20017;-79
2023/04/24 06:46:46;;;;;;;6.22;5.13;;;;;;;;;;6097362;23;20021;-77
2023/04/24 06:49:15;;;;;;;7.90;4.93;;;;;;;;;;6098764;23;20081;-77
2023/04/24 06:51:42;;;;;;;8.18;4.82;;;;;;;;;;6072454;23;20018;-83
2023/04/24 06:54:08;;;;;;;8.13;4.32;;;;;;;;;;6096512;23;20567;-78
2023/04/24 06:56:34;;;;;;;7.25;4.90;;;;;;;;;;6121723;23;20021;-78
2023/04/24 06:59:00;;;;;;;7.78;4.40;;;;;;;;;;6096298;23;20041;-77
2023/04/24 07:01:27;;;;;;;7.53;5.07;;;;;;;;;;6096196;23;20454;-79
2023/04/24 07:03:53;;;;;;;8.23;5.00;;;;;;;;;;6095581;23;20045;-77
2023/04/24 07:06:21;;;;;;;6.95;4.18;;;;;;;;;;6121615;23;20021;-78
2023/04/24 07:08:47;;;;;;;6.10;3.95;;;;;;;;;;6122393;23;20072;-77
2023/04/24 07:11:13;;;;;;;10.10;3.80;;;;;;;;;;6122293;23;20502;-76
2023/04/24 07:13:41;;;;;;;5.78;4.47;;;;;;;;;;6096277;23;20037;-82
2023/04/24 07:16:08;;;;;;;6.43;4.60;;;;;;;;;;6123062;23;20089;-82
2023/04/24 07:18:34;;;;;;;6.60;5.70;;;;;;;;;;6122292;23;20014;-81
2023/04/24 07:21:00;;;;;;;5.22;4.20;;;;;;;;;;6072495;23;20074;-78
2023/04/24 07:23:26;;;;;;;9.80;4.18;;;;;;;;;;6122071;23;20013;-79
2023/04/24 07:25:52;;;;;;;4.43;3.65;;;;;;;;;;6072355;23;20407;-78
2023/04/24 07:28:18;;;;;;;6.78;4.00;;;;;;;;;;6096457;23;20018;-78
2023/04/24 07:30:44;;;;;;;5.57;3.60;;;;;;;;;;6096448;23;20024;-77
2023/04/24 07:33:12;;;;;;;7.40;3.72;;;;;;;;;;6104484;23;20010;-79
2023/04/24 07:35:39;;;;;;;7.18;4.00;;;;;;;;;;6133007;23;20450;-77
2023/04/24 07:38:05;;;;;;;12.27;4.57;;;;;;;;;;6097142;23;20013;-78
2023/04/24 07:40:31;;;;;;;8.18;4.32;;;;;;;;;;6095697;23;20039;-78
2023/04/24 07:42:57;;;;;;;8.88;4.50;;;;;;;;;;6125418;23;20014;-78
2023/04/24 07:45:25;;;;;;;4.28;3.97;;;;;;;;;;6073919;23;20137;-77
2023/04/24 07:47:51;;;;;;;4.97;4.50;;;;;;;;;;6098116;23;20045;-77
2023/04/24 07:50:19;;;;;;;6.88;4.57;;;;;;;;;;6097949;23;20016;-77
2023/04/24 07:52:45;;;;;;;7.18;3.75;;;;;;;;;;6098684;23;20014;-77
2023/04/24 07:55:23;;;;;;;5.18;4.72;;;;;;;;;;6101422;23;20018;-77
2023/04/24 07:57:51;;;;;;;9.02;3.85;;;;;;;;;;6124195;23;20044;-76
2023/04/24 08:00:22;;;;;;;4.50;4.10;;;;;;;;;;6122928;23;20041;-77
2023/04/24 08:02:49;;;;;;;8.50;4.70;;;;;;;;;;6124582;23;20010;-78
2023/04/24 08:05:17;;;;;;;4.75;4.43;;;;;;;;;;6098319;23;20040;-78
2023/04/24 08:07:45;;;;;;;4.53;4.15;;;;;;;;;;6098035;23;20073;-78
2023/04/24 08:10:13;;;;;;;4.35;4.03;;;;;;;;;;6124097;23;20088;-78
2023/04/24 08:12:41;;;;;;;4.60;4.20;;;;;;;;;;6097279;23;20113;-79
2023/04/24 08:15:13;;;;;;;6.30;3.22;;;;;;;;;;6125509;23;20006;-76
2023/04/24 08:17:40;;;;;;;7.72;4.00;;;;;;;;;;6098854;23;20013;-78
2023/04/24 08:20:13;;;;;;;5.78;4.63;;;;;;;;;;6124077;23;20021;-77
2023/04/24 08:22:40;;;;;;;5.00;4.60;;;;;;;;;;6099172;23;20018;-77
2023/04/24 08:25:06;;;;;;;5.22;4.50;;;;;;;;;;6074469;23;20009;-78
2023/04/24 08:27:33;;;;;;;5.32;4.75;;;;;;;;;;6124226;23;20024;-78
2023/04/24 08:30:03;;;;;;;4.40;4.10;;;;;;;;;;6099673;23;20014;-78
2023/04/24 08:32:36;;;;;;;10.82;4.28;;;;;;;;;;6074207;23;20640;-78
2023/04/24 08:35:08;;;;;;;13.02;4.75;;;;;;;;;;6098230;23;20018;-76
2023/04/24 08:37:34;;;;;;;5.10;4.10;;;;;;;;;;6098431;23;20025;-77
2023/04/24 08:40:02;;;;;;;4.45;4.13;;;;;;;;;;6074545;23;20053;-78
2023/04/24 08:42:33;;;;;;;5.10;4.70;;;;;;;;;;6076831;23;20475;-77
2023/04/24 08:45:00;;;;;;;4.37;3.97;;;;;;;;;;6098723;23;20006;-77
2023/04/24 08:47:26;;;;;;;5.63;4.40;;;;;;;;;;6073898;23;20429;-78
2023/04/24 08:49:52;;;;;;;9.38;4.28;;;;;;;;;;6124711;23;20014;-77
2023/04/24 08:52:19;;;;;;;10.13;4.10;;;;;;;;;;6075707;23;20077;-77
2023/04/24 08:54:46;;;;;;;4.22;3.80;;;;;;;;;;6130648;23;20517;-78
2023/04/24 08:57:12;;;;;;;4.10;3.80;;;;;;;;;;6127589;23;20010;-78
2023/04/24 08:59:38;;;;;;;6.05;4.10;;;;;;;;;;6124047;23;20340;-77
2023/04/24 09:02:04;;;;;;;5.13;4.70;;;;;;;;;;6097852;23;20013;-78
2023/04/24 09:04:31;;;;;;;4.18;3.83;;;;;;;;;;6123452;23;20180;-77
2023/04/24 09:06:57;;;;;;;9.45;4.20;;;;;;;;;;6123504;23;20509;-77
2023/04/24 09:09:23;;;;;;;6.82;3.97;;;;;;;;;;6097512;23;20010;-77
2023/04/24 09:11:58;;;;;;;11.93;4.70;;;;;;;;;;6073752;23;20014;-78
2023/04/24 09:14:28;;;;;;;10.43;4.80;;;;;;;;;;6073757;23;20033;-78
2023/04/24 09:16:53;;;;;;;5.10;4.63;;;;;;;;;;6098024;23;20028;-77
2023/04/24 09:19:23;;;;;;;5.10;4.22;;;;;;;;;;6124592;23;20131;-77
2023/04/24 09:21:50;;;;;;;4.72;4.43;;;;;;;;;;6098906;23;20478;-78
2023/04/24 09:24:22;;;;;;;4.60;4.30;;;;;;;;;;6077302;23;20041;-77
2023/04/24 09:26:48;;;;;;;4.90;4.47;;;;;;;;;;6125009;23;20022;-76
2023/04/24 09:29:17;;;;;;;5.28;4.38;;;;;;;;;;6126504;23;20054;-78
2023/04/24 09:31:43;;;;;;;6.35;4.05;;;;;;;;;;6076153;23;20022;-78
2023/04/24 09:34:09;;;;;;;4.45;4.15;;;;;;;;;;6098376;23;20009;-77
2023/04/24 09:36:39;;;;;;;8.07;4.50;;;;;;;;;;6124407;23;20013;-76
2023/04/24 09:39:06;;;;;;;4.47;4.18;;;;;;;;;;6126301;23;20385;-76
2023/04/24 09:41:32;;;;;;;6.97;4.43;;;;;;;;;;6126011;23;20021;-77
2023/04/24 09:44:10;;;;;;;5.43;5.03;;;;;;;;;;6128013;23;20010;-76
2023/04/24 09:46:39;;;;;;;5.93;4.20;;;;;;;;;;6079289;23;20028;-77
2023/04/24 09:49:09;;;;;;;4.97;4.25;;;;;;;;;;6102405;23;20073;-77
2023/04/24 09:51:36;;;;;;;8.15;3.80;;;;;;;;;;6128027;23;20018;-76
2023/04/24 09:54:03;;;;;;;11.18;4.32;;;;;;;;;;6128118;23;20493;-78
2023/04/24 09:56:32;;;;;;;4.65;4.25;;;;;;;;;;6127590;23;20013;-77
2023/04/24 09:59:04;;;;;;;6.00;4.18;;;;;;;;;;6128795;23;20010;-78
2023/04/24 10:01:30;;;;;;;6.35;4.35;;;;;;;;;;6128092;23;20014;-76
2023/04/24 10:03:56;;;;;;;5.25;4.85;;;;;;;;;;6128869;23;20010;-77
2023/04/24 10:06:23;;;;;;;4.95;4.47;;;;;;;;;;6078161;23;20049;-77
2023/04/24 10:08:50;;;;;;;7.93;4.63;;;;;;;;;;6096797;23;20113;-77
2023/04/24 10:11:16;;;;;;;5.32;4.07;;;;;;;;;;6097153;23;20024;-77
2023/04/24 10:13:42;;;;;;;5.88;4.80;;;;;;;;;;6097120;23;20010;-77
2023/04/24 10:16:09;;;;;;;4.75;4.32;;;;;;;;;;6096950;23;20025;-77
2023/04/24 10:18:35;;;;;;;3.88;3.58;;;;;;;;;;6123035;23;20021;-78
2023/04/24 10:21:01;;;;;;;4.78;3.85;;;;;;;;;;6125166;23;20018;-77
2023/04/24 10:23:27;;;;;;;4.60;4.07;;;;;;;;;;6097192;23;20102;-77
2023/04/24 10:25:53;;;;;;;4.32;3.88;;;;;;;;;;6122752;23;20025;-77
2023/04/24 10:28:19;;;;;;;4.20;3.92;;;;;;;;;;6097041;23;20458;-77
2023/04/24 10:30:45;;;;;;;5.00;3.90;;;;;;;;;;6122738;23;20093;-77
2023/04/24 10:33:13;;;;;;;5.05;4.05;;;;;;;;;;6122997;23;20355;-77
2023/04/24 10:35:40;;;;;;;6.03;4.30;;;;;;;;;;6049718;23;20018;-77
2023/04/24 10:38:08;;;;;;;4.30;3.90;;;;;;;;;;6096587;23;20093;-77
2023/04/24 10:40:34;;;;;;;5.90;3.97;;;;;;;;;;6123682;23;20013;-77
2023/04/24 10:43:02;;;;;;;9.68;4.05;;;;;;;;;;6125046;23;20024;-78
2023/04/24 10:45:28;;;;;;;8.20;4.05;;;;;;;;;;6125927;23;20161;-78
2023/04/24 10:47:58;;;;;;;4.40;3.95;;;;;;;;;;6127920;23;20371;-79
2023/04/24 10:50:28;;;;;;;4.20;3.80;;;;;;;;;;6135540;23;20022;-78
2023/04/24 10:52:56;;;;;;;6.05;3.85;;;;;;;;;;6131068;23;20036;-78
2023/04/24 10:55:42;;;;;;;4.10;3.65;;;;;;;;;;6105350;23;20025;-78
2023/04/24 10:58:08;;;;;;;3.83;3.42;;;;;;;;;;6123278;23;20021;-77
2023/04/24 11:00:36;;;;;;;5.63;3.72;;;;;;;;;;6096862;23;20026;-78
2023/04/24 11:03:03;;;;;;;5.03;4.50;;;;;;;;;;6122835;23;20020;-79
2023/04/24 11:05:47;;;;;;;7.53;3.83;;;;;;;;;;6049242;23;20383;-78
2023/04/24 11:08:15;;;;;;;4.40;3.47;;;;;;;;;;6122766;23;20014;-77
2023/04/24 11:10:45;;;;;;;3.38;3.10;;;;;;;;;;6096585;23;20018;-78
2023/04/24 11:13:21;;;;;;;3.67;3.40;;;;;;;;;;6122893;23;20037;-77
2023/04/24 11:16:07;;;;;;;18.73;3.70;;;;;;;;;;6097622;23;20092;-77
2023/04/24 11:18:39;;;;;;;3.28;2.97;;;;;;;;;;6124555;23;20014;-78
2023/04/24 11:21:19;;;;;;;6.05;3.60;;;;;;;;;;6124636;23;20105;-77
2023/04/24 11:23:45;;;;;;;4.88;3.60;;;;;;;;;;6051755;23;20022;-78
2023/04/24 11:26:21;;;;;;;3.80;3.50;;;;;;;;;;6124878;23;20029;-77
2023/04/24 11:28:48;;;;;;;4.15;3.78;;;;;;;;;;6124366;23;20013;-77
2023/04/24 11:31:33;;;;;;;4.80;3.30;;;;;;;;;;6074525;23;20022;-78
2023/04/24 11:34:05;;;;;;;4.25;3.63;;;;;;;;;;6124774;23;20432;-77
2023/04/24 11:36:31;;;;;;;10.27;3.92;;;;;;;;;;6124989;23;20024;-78
2023/04/24 11:38:57;;;;;;;5.72;3.80;;;;;;;;;;6098583;23;20044;-78
2023/04/24 11:41:30;;;;;;;3.58;2.95;;;;;;;;;;6099334;23;20088;-77
2023/04/24 11:43:56;;;;;;;4.57;3.58;;;;;;;;;;6124111;23;20073;-77
2023/04/24 11:46:22;;;;;;;4.00;3.42;;;;;;;;;;6098723;23;20029;-78
2023/04/24 11:48:53;;;;;;;3.67;3.42;;;;;;;;;;6076163;23;20042;-77
2023/04/24 11:51:19;;;;;;;5.72;3.35;;;;;;;;;;6099146;23;20013;-77
2023/04/24 11:53:45;;;;;;;10.35;3.78;;;;;;;;;;6074411;23;20101;-77
2023/04/24 11:56:13;;;;;;;7.85;3.40;;;;;;;;;;6123968;23;20010;-77
2023/04/24 11:58:42;;;;;;;12.85;3.45;;;;;;;;;;6098268;23;20101;-78
2023/04/24 12:01:08;;;;;;;4.15;3.08;;;;;;;;;;6098361;23;20488;-78
2023/04/24 12:03:34;;;;;;;4.03;3.53;;;;;;;;;;6073939;23;20052;-79
2023/04/24 12:06:10;;;;;;;6.57;3.17;;;;;;;;;;6098821;23;20026;-77
2023/04/24 12:08:39;;;;;;;3.75;3.35;;;;;;;;;;6099064;23;20020;-78
2023/04/24 12:11:06;;;;;;;4.07;3.72;;;;;;;;;;6098480;23;20025;-78
2023/04/24 12:13:36;;;;;;;3.38;3.08;;;;;;;;;;6098352;23;20013;-78
2023/04/24 12:16:03;;;;;;;5.80;2.97;;;;;;;;;;6099081;23;20017;-77
2023/04/24 12:18:29;;;;;;;6.00;3.63;;;;;;;;;;6098158;23;20474;-78
2023/04/24 12:20:55;;;;;;;7.28;2.75;;;;;;;;;;6097808;23;20036;-78
2023/04/24 12:23:33;;;;;;;4.00;3.60;;;;;;;;;;6124007;23;20383;-78
2023/04/24 12:26:05;;;;;;;3.55;3.25;;;;;;;;;;6098070;23;20018;-78
2023/04/24 12:28:35;;;;;;;5.53;3.30;;;;;;;;;;6125435;23;20013;-79
2023/04/24 12:31:01;;;;;;;4.38;3.58;;;;;;;;;;6098214;23;20477;-77
2023/04/24 12:33:27;;;;;;;4.88;3.72;;;;;;;;;;6050340;23;20018;-77
2023/04/24 12:35:56;;;;;;;3.70;3.00;;;;;;;;;;6097809;23;20069;-78
2023/04/24 12:38:23;;;;;;;3.53;3.22;;;;;;;;;;6097997;23;20025;-77
2023/04/24 12:41:01;;;;;;;7.78;3.22;;;;;;;;;;6098146;23;20212;-78
2023/04/24 12:43:27;;;;;;;4.72;3.13;;;;;;;;;;6074417;23;20021;-78
2023/04/24 12:45:54;;;;;;;4.93;3.25;;;;;;;;;;6124438;23;20458;-78
2023/04/24 12:48:20;;;;;;;4.20;3.25;;;;;;;;;;6026369;23;20024;-78
2023/04/24 12:50:46;;;;;;;5.47;3.00;;;;;;;;;;6123902;23;20473;-78
2023/04/24 12:53:12;;;;;;;5.90;3.00;;;;;;;;;;6073961;23;20006;-78
2023/04/24 12:55:38;;;;;;;3.28;3.08;;;;;;;;;;6123688;23;20018;-78
2023/04/24 12:58:04;;;;;;;5.25;3.28;;;;;;;;;;6124538;23;20014;-79
2023/04/24 13:00:30;;;;;;;3.67;3.13;;;;;;;;;;6075182;23;20041;-80
2023/04/24 13:02:56;;;;;;;8.13;3.33;;;;;;;;;;6098978;23;20020;-78
2023/04/24 13:05:22;;;;;;;4.10;3.20;;;;;;;;;;6124722;23;20014;-78
2023/04/24 13:07:49;;;;;;;6.28;3.20;;;;;;;;;;6124930;23;20446;-79
2023/04/24 13:10:15;;;;;;;3.53;3.30;;;;;;;;;;6097665;23;20014;-78
2023/04/24 13:12:45;;;;;;;3.13;2.85;;;;;;;;;;6123592;23;20025;-78
2023/04/24 13:15:11;;;;;;;6.25;2.95;;;;;;;;;;6098552;23;20040;-77
2023/04/24 13:17:38;;;;;;;3.55;3.08;;;;;;;;;;6123869;23;20477;-78
2023/04/24 13:20:07;;;;;;;4.32;3.08;;;;;;;;;;6124111;23;20018;-79
2023/04/24 13:22:35;;;;;;;3.63;3.33;;;;;;;;;;6097932;23;20025;-79
2023/04/24 13:25:01;;;;;;;3.10;2.70;;;;;;;;;;6125211;23;20363;-79
2023/04/24 13:27:31;;;;;;;8.13;2.92;;;;;;;;;;6113577;23;20022;-79
2023/04/24 13:29:57;;;;;;;3.90;2.97;;;;;;;;;;6114613;23;20529;-79
2023/04/24 13:32:23;;;;;;;3.05;2.78;;;;;;;;;;6066741;23;20493;-78
2023/04/24 13:34:50;;;;;;;6.20;3.03;;;;;;;;;;6114710;23;20515;-78
2023/04/24 13:37:16;;;;;;;4.88;2.50;;;;;;;;;;6135916;23;20018;-80
2023/04/24 13:39:42;;;;;;;3.30;2.60;;;;;;;;;;6098464;23;20093;-81
2023/04/24 13:42:08;;;;;;;5.53;2.50;;;;;;;;;;6098806;23;20089;-79
2023/04/24 13:44:35;;;;;;;3.70;2.83;;;;;;;;;;6125087;23;20488;-79
2023/04/24 13:47:01;;;;;;;6.88;3.30;;;;;;;;;;6076619;23;20021;-79
2023/04/24 13:49:27;;;;;;;7.10;3.10;;;;;;;;;;6098144;23;20018;-79
2023/04/24 13:51:54;;;;;;;12.93;3.45;;;;;;;;;;6098663;23;20049;-79
2023/04/24 13:54:20;;;;;;;8.48;3.17;;;;;;;;;;6097901;23;20021;-79
2023/04/24 13:56:46;;;;;;;8.27;3.13;;;;;;;;;;6098866;23;20022;-79
2023/04/24 13:59:14;;;;;;;4.72;2.65;;;;;;;;;;6080910;23;20026;-78
2023/04/24 14:01:40;;;;;;;4.43;2.67;;;;;;;;;;6136815;23;20017;-78
2023/04/24 14:04:06;;;;;;;4.85;3.15;;;;;;;;;;6133416;23;20017;-78
2023/04/24 14:06:32;;;;;;;2.70;2.50;;;;;;;;;;6073414;23;20025;-79
2023/04/24 14:08:58;;;;;;;5.25;2.63;;;;;;;;;;6122981;23;20465;-78
2023/04/24 14:11:24;;;;;;;3.88;2.85;;;;;;;;;;6123170;23;20048;-78
2023/04/24 14:13:50;;;;;;;4.82;2.92;;;;;;;;;;6096918;23;20013;-77
2023/04/24 14:16:16;;;;;;;3.10;2.90;;;;;;;;;;6097376;23;20025;-77
2023/04/24 14:18:42;;;;;;;3.42;3.17;;;;;;;;;;6097197;23;20511;-79
2023/04/24 14:21:08;;;;;;;9.80;3.60;;;;;;;;;;6123206;23;20040;-76
2023/04/24 14:23:34;;;;;;;4.60;4.20;;;;;;;;;;6097282;23;20522;-76
2023/04/24 14:26:00;;;;;;;7.00;3.70;;;;;;;;;;6122776;23;20053;-76
2023/04/24 14:28:26;;;;;;;5.60;3.35;;;;;;;;;;6097150;23;20014;-76
2023/04/24 14:30:54;;;;;;;4.38;3.00;;;;;;;;;;6096761;23;20029;-76
2023/04/24 14:33:20;;;;;;;4.63;3.55;;;;;;;;;;6123705;23;20014;-77
2023/04/24 14:35:47;;;;;;;9.23;3.42;;;;;;;;;;6124310;23;20020;-77
2023/04/24 14:38:13;;;;;;;4.53;2.80;;;;;;;;;;6097041;23;20033;-77
2023/04/24 14:40:39;;;;;;;3.17;2.97;;;;;;;;;;6123393;23;20469;-76
2023/04/24 14:43:05;;;;;;;4.10;3.78;;;;;;;;;;6104453;23;20013;-77